Terminal Aerodrome Forecast
Issued by NWS

Home | Current Version | Previous Version | Text Only | Print | Product List | Glossary On
Versions: 1 2 3 4 5 6 7 8 9 10 11 12 13
000
FTUS45 KVEF 270530
TAFVGT
TAF
KVGT 270530Z 2706/2806 24011KT P6SM SKC
     FM270800 34007KT P6SM SKC
     FM271800 14007KT P6SM SKC
     FM272300 24012KT P6SM SKC=

USA.gov is the U.S. government's official web portal to all federal, state and local government web resources and services.